createdAt,value
2023-10-27T00:02:10.575Z,16.80
2023-10-27T00:04:38.553Z,15.77
2023-10-27T00:07:06.451Z,13.30
2023-10-27T00:09:37.118Z,23.95
2023-10-27T00:12:05.273Z,15.55
2023-10-27T00:14:34.533Z,15.23
2023-10-27T00:17:02.630Z,17.10
2023-10-27T00:19:31.953Z,19.13
2023-10-27T00:21:59.893Z,14.43
2023-10-27T00:24:28.348Z,20.20
2023-10-27T00:26:56.422Z,22.10
2023-10-27T00:29:25.567Z,16.37
2023-10-27T00:31:53.440Z,31.65
2023-10-27T00:34:21.761Z,13.45
2023-10-27T00:36:51.331Z,13.35
2023-10-27T00:39:19.229Z,14.25
2023-10-27T00:41:47.180Z,15.83
2023-10-27T00:44:15.033Z,16.27
2023-10-27T00:46:45.218Z,15.32
2023-10-27T00:49:13.683Z,13.25
2023-10-27T00:51:42.530Z,12.27
2023-10-27T00:54:12.498Z,12.70
2023-10-27T00:56:41.326Z,14.15
2023-10-27T00:59:09.679Z,11.85
2023-10-27T01:01:38.466Z,13.70
2023-10-27T01:04:07.061Z,14.48
2023-10-27T01:06:35.096Z,16.33
2023-10-27T01:09:03.163Z,13.30
2023-10-27T01:11:32.392Z,12.90
2023-10-27T01:14:00.341Z,12.18
2023-10-27T01:16:28.393Z,13.35
2023-10-27T01:18:57.103Z,11.53
2023-10-27T01:21:25.008Z,14.52
2023-10-27T01:23:54.231Z,13.90
2023-10-27T01:26:22.191Z,13.20
2023-10-27T01:28:50.284Z,13.48
2023-10-27T01:31:18.992Z,13.30
2023-10-27T01:33:46.992Z,13.65
2023-10-27T01:36:15.170Z,12.95
2023-10-27T01:38:43.157Z,11.98
2023-10-27T01:41:12.567Z,14.25
2023-10-27T01:43:40.414Z,13.60
2023-10-27T01:46:08.621Z,15.50
2023-10-27T01:48:37.349Z,15.30
2023-10-27T01:51:05.705Z,15.27
2023-10-27T01:53:35.032Z,16.10
2023-10-27T01:56:03.198Z,15.73
2023-10-27T01:58:32.441Z,15.90
2023-10-27T02:01:00.389Z,16.75
2023-10-27T02:03:28.388Z,13.55
2023-10-27T02:05:56.271Z,15.55
2023-10-27T02:08:24.161Z,14.87
2023-10-27T02:10:52.232Z,14.88
2023-10-27T02:13:20.130Z,23.35
2023-10-27T02:15:49.412Z,14.45
2023-10-27T02:18:17.648Z,16.38
2023-10-27T02:20:45.582Z,16.23
2023-10-27T02:23:13.582Z,17.38
2023-10-27T02:25:41.445Z,19.05
2023-10-27T02:28:09.615Z,15.43
2023-10-27T02:30:37.580Z,13.77
2023-10-27T02:33:06.857Z,15.37
2023-10-27T02:35:34.894Z,12.57
2023-10-27T02:38:05.188Z,15.82
2023-10-27T02:40:33.196Z,16.08
2023-10-27T02:43:03.022Z,13.60
2023-10-27T02:45:31.768Z,11.13
2023-10-27T02:47:59.734Z,11.57
2023-10-27T02:50:29.029Z,12.57
2023-10-27T02:52:57.681Z,12.43
2023-10-27T02:55:26.442Z,12.70
2023-10-27T02:57:55.227Z,13.63
2023-10-27T03:00:24.344Z,14.77
2023-10-27T03:02:53.153Z,13.40
2023-10-27T03:05:22.560Z,14.15
2023-10-27T03:07:52.560Z,13.27
2023-10-27T03:10:21.823Z,14.63
2023-10-27T03:12:50.706Z,12.02
2023-10-27T03:15:19.454Z,13.43
2023-10-27T03:17:48.052Z,12.70
2023-10-27T03:20:17.611Z,12.90
2023-10-27T03:22:46.316Z,14.27
2023-10-27T03:25:16.315Z,13.05
2023-10-27T03:27:45.381Z,13.27
2023-10-27T03:30:15.315Z,12.88
2023-10-27T03:32:43.990Z,14.35
2023-10-27T03:35:12.688Z,10.43
2023-10-27T03:37:41.338Z,13.07
2023-10-27T03:40:11.631Z,12.75
2023-10-27T03:42:41.802Z,13.02
2023-10-27T03:45:10.901Z,14.50
2023-10-27T03:47:41.019Z,14.13
2023-10-27T03:50:12.337Z,13.95
2023-10-27T03:52:41.144Z,12.60
2023-10-27T03:55:12.857Z,13.02
2023-10-27T03:57:43.742Z,12.60
2023-10-27T04:00:14.859Z,16.87
2023-10-27T04:02:42.678Z,15.85
2023-10-27T04:05:10.914Z,13.88
2023-10-27T04:07:38.792Z,12.73
2023-10-27T04:10:08.140Z,11.77
2023-10-27T04:12:36.895Z,13.53
2023-10-27T04:15:09.617Z,13.15
2023-10-27T04:17:38.778Z,11.93
2023-10-27T04:20:09.018Z,13.02
2023-10-27T04:22:37.546Z,14.68
2023-10-27T04:25:06.802Z,13.07
2023-10-27T04:27:35.500Z,14.80
2023-10-27T04:30:05.455Z,13.65
2023-10-27T04:32:35.449Z,13.38
2023-10-27T04:35:04.195Z,12.27
2023-10-27T04:37:33.791Z,10.77
2023-10-27T04:40:02.825Z,12.80
2023-10-27T04:42:31.718Z,11.43
2023-10-27T04:45:00.525Z,11.57
2023-10-27T04:47:29.193Z,13.48
2023-10-27T04:49:58.560Z,10.60
2023-10-27T04:52:27.002Z,10.82
2023-10-27T04:54:56.660Z,10.70
2023-10-27T04:57:25.008Z,13.15
2023-10-27T04:59:53.779Z,13.10
2023-10-27T05:02:22.460Z,13.23
2023-10-27T05:04:51.278Z,12.88
2023-10-27T05:07:21.365Z,12.35
2023-10-27T05:09:51.442Z,13.25
2023-10-27T05:12:20.222Z,14.20
2023-10-27T05:14:48.915Z,13.27
2023-10-27T05:17:18.797Z,14.30
2023-10-27T05:19:47.638Z,14.75
2023-10-27T05:22:16.492Z,14.55
2023-10-27T05:24:46.496Z,14.38
2023-10-27T05:27:15.540Z,12.63
2023-10-27T05:29:44.501Z,16.50
2023-10-27T05:32:14.772Z,16.83
2023-10-27T05:34:43.576Z,15.20
2023-10-27T05:37:12.424Z,18.75
2023-10-27T05:39:40.898Z,13.93
2023-10-27T05:42:10.892Z,16.70
2023-10-27T05:44:41.418Z,13.30
2023-10-27T05:47:09.669Z,14.38
2023-10-27T05:49:38.525Z,13.77
2023-10-27T05:52:07.217Z,15.47
2023-10-27T05:54:35.893Z,15.45
2023-10-27T05:57:05.181Z,15.35
2023-10-27T05:59:35.167Z,15.70
2023-10-27T06:02:14.610Z,15.77
2023-10-27T06:04:43.966Z,15.17
2023-10-27T06:07:16.992Z,13.52
2023-10-27T06:09:46.845Z,17.05
2023-10-27T06:12:19.199Z,14.10
2023-10-27T06:14:52.321Z,13.85
2023-10-27T06:17:20.944Z,14.97
2023-10-27T06:20:01.456Z,12.40
2023-10-27T06:22:38.443Z,15.55
2023-10-27T06:25:07.897Z,15.07
2023-10-27T06:27:38.928Z,14.57
2023-10-27T06:30:10.169Z,14.53
2023-10-27T06:32:38.998Z,15.70
2023-10-27T06:35:07.682Z,15.18
2023-10-27T06:37:36.582Z,14.18
2023-10-27T06:40:06.358Z,16.25
2023-10-27T06:42:35.468Z,17.07
2023-10-27T06:45:05.432Z,15.18
2023-10-27T06:47:36.020Z,17.13
2023-10-27T06:50:05.486Z,15.95
2023-10-27T06:52:35.755Z,15.63
2023-10-27T06:55:05.347Z,15.73
2023-10-27T06:57:34.993Z,14.73
2023-10-27T07:00:03.614Z,17.65
2023-10-27T07:02:45.449Z,18.23
2023-10-27T07:05:23.441Z,16.02
2023-10-27T07:07:52.353Z,15.40
2023-10-27T07:10:21.775Z,16.23
2023-10-27T07:12:50.393Z,14.75
2023-10-27T07:15:20.924Z,15.27
2023-10-27T07:17:49.270Z,14.73
2023-10-27T07:20:18.584Z,15.00
2023-10-27T07:22:48.060Z,17.75
2023-10-27T07:25:16.128Z,16.05
2023-10-27T07:27:45.648Z,13.88
2023-10-27T07:30:15.235Z,13.98
2023-10-27T07:32:43.691Z,15.53
2023-10-27T07:35:12.416Z,16.35
2023-10-27T07:37:41.633Z,17.85
2023-10-27T07:40:12.597Z,17.55
2023-10-27T07:42:41.210Z,15.98
2023-10-27T07:45:10.466Z,17.60
2023-10-27T07:47:39.081Z,18.02
2023-10-27T07:50:08.173Z,18.65
2023-10-27T07:52:36.936Z,17.17
2023-10-27T07:55:07.983Z,17.48
2023-10-27T07:57:38.053Z,17.37
2023-10-27T08:00:11.329Z,18.30
2023-10-27T08:02:40.524Z,20.00
2023-10-27T08:05:09.294Z,19.40
2023-10-27T08:07:38.242Z,19.45
2023-10-27T08:10:09.117Z,19.30
2023-10-27T08:12:43.346Z,17.70
2023-10-27T08:15:12.052Z,20.45
2023-10-27T08:17:40.266Z,21.70
2023-10-27T08:20:09.635Z,19.30
2023-10-27T08:22:38.521Z,19.43
2023-10-27T08:25:07.461Z,20.40
2023-10-27T08:27:36.178Z,21.13
2023-10-27T08:30:07.159Z,21.55
2023-10-27T08:32:35.900Z,21.00
2023-10-27T08:35:04.154Z,20.33
2023-10-27T08:37:32.074Z,22.65
2023-10-27T08:39:59.979Z,20.35
2023-10-27T08:42:29.072Z,18.77
2023-10-27T08:44:58.634Z,22.98
2023-10-27T08:47:32.112Z,23.13
2023-10-27T08:50:02.284Z,21.10
2023-10-27T08:52:30.550Z,17.23
2023-10-27T08:55:00.617Z,18.70
2023-10-27T08:57:27.628Z,20.75
2023-10-27T08:59:56.856Z,19.17
2023-10-27T09:02:37.077Z,16.38
2023-10-27T09:05:08.192Z,16.02
2023-10-27T09:07:36.604Z,20.27
2023-10-27T09:10:08.712Z,21.70
2023-10-27T09:12:39.066Z,19.10
2023-10-27T09:15:09.739Z,19.83
2023-10-27T09:17:56.141Z,18.45
2023-10-27T09:20:26.927Z,18.58
2023-10-27T09:22:59.985Z,21.92
2023-10-27T09:25:33.167Z,19.20
2023-10-27T09:28:03.550Z,20.80
2023-10-27T09:30:34.856Z,18.58
2023-10-27T09:33:15.733Z,18.60
2023-10-27T09:35:44.676Z,19.70
2023-10-27T09:38:14.465Z,19.10
2023-10-27T09:40:43.828Z,17.08
2023-10-27T09:43:18.793Z,21.27
2023-10-27T09:45:54.396Z,18.35
2023-10-27T09:48:29.138Z,16.63
2023-10-27T09:51:02.579Z,20.27
2023-10-27T09:53:31.769Z,21.08
2023-10-27T09:56:01.484Z,21.02
2023-10-27T09:58:32.828Z,19.55
2023-10-27T10:01:03.184Z,19.95
2023-10-27T10:03:34.036Z,24.10
2023-10-27T10:06:11.492Z,20.70
2023-10-27T10:08:40.159Z,21.27
2023-10-27T10:11:16.126Z,17.70
2023-10-27T10:13:46.334Z,18.33
2023-10-27T10:16:16.229Z,18.43
2023-10-27T10:18:56.616Z,18.42
2023-10-27T10:21:44.438Z,17.83
2023-10-27T10:24:13.048Z,17.38
2023-10-27T10:27:12.159Z,17.42
2023-10-27T10:29:41.733Z,17.40
2023-10-27T10:32:35.634Z,17.90
2023-10-27T10:35:28.883Z,16.02
2023-10-27T10:37:57.419Z,19.02
2023-10-27T10:40:29.385Z,20.10
2023-10-27T10:43:25.219Z,20.03
2023-10-27T10:45:56.356Z,19.98
2023-10-27T10:48:27.580Z,19.27
2023-10-27T10:51:00.512Z,19.83
2023-10-27T10:53:28.545Z,18.83
2023-10-27T10:56:02.118Z,20.60
2023-10-27T10:58:31.982Z,20.30
2023-10-27T11:01:02.377Z,22.15
2023-10-27T11:03:33.300Z,22.05
2023-10-27T11:06:06.969Z,20.90
2023-10-27T11:08:39.122Z,20.50
2023-10-27T11:11:09.295Z,21.92
2023-10-27T11:13:43.030Z,20.13
2023-10-27T11:16:18.971Z,19.88
2023-10-27T11:18:49.353Z,21.33
2023-10-27T11:21:20.406Z,20.13
2023-10-27T11:23:50.167Z,22.63
2023-10-27T11:26:20.969Z,20.80
2023-10-27T11:28:50.304Z,19.70
2023-10-27T11:31:28.758Z,18.08
2023-10-27T11:33:58.489Z,20.33
2023-10-27T11:36:29.449Z,17.63
2023-10-27T11:38:58.333Z,20.33
2023-10-27T11:41:26.803Z,18.63
2023-10-27T11:43:55.684Z,20.50
2023-10-27T11:46:24.066Z,18.10
2023-10-27T11:48:52.681Z,21.13
2023-10-27T11:51:21.008Z,19.33
2023-10-27T11:53:51.371Z,16.95
2023-10-27T11:56:20.388Z,19.98
2023-10-27T11:58:48.690Z,20.03
2023-10-27T12:01:17.169Z,19.05
2023-10-27T12:03:45.203Z,18.17
2023-10-27T12:06:13.694Z,17.25
2023-10-27T12:08:42.205Z,18.67
2023-10-27T12:11:11.655Z,19.70
2023-10-27T12:13:40.314Z,17.52
2023-10-27T12:16:09.335Z,19.33
2023-10-27T12:18:37.964Z,19.80
2023-10-27T12:21:07.089Z,20.23
2023-10-27T12:23:35.176Z,18.23
2023-10-27T12:26:04.895Z,18.13
2023-10-27T12:28:34.221Z,16.83
2023-10-27T12:31:03.010Z,21.73
2023-10-27T12:33:31.575Z,17.83
2023-10-27T12:36:07.345Z,19.57
2023-10-27T12:38:36.445Z,16.77
2023-10-27T12:41:06.159Z,17.55
2023-10-27T12:43:36.449Z,18.23
2023-10-27T12:46:06.012Z,19.83
2023-10-27T12:48:35.955Z,19.37
2023-10-27T12:51:04.924Z,19.70
2023-10-27T12:53:33.258Z,16.02
2023-10-27T12:56:01.745Z,17.48
2023-10-27T12:58:30.501Z,15.27
2023-10-27T13:01:02.688Z,14.67
2023-10-27T13:03:32.249Z,12.63
2023-10-27T13:06:00.456Z,12.02
2023-10-27T13:08:28.971Z,14.50
2023-10-27T13:10:58.068Z,11.93
2023-10-27T13:13:26.694Z,12.73
2023-10-27T13:15:55.353Z,10.95
2023-10-27T13:18:26.714Z,11.98
2023-10-27T13:20:55.789Z,11.95
2023-10-27T13:23:24.495Z,10.63
2023-10-27T13:26:03.762Z,8.40
2023-10-27T13:28:32.451Z,10.30
2023-10-27T13:31:01.341Z,9.95
2023-10-27T13:33:31.617Z,8.07
2023-10-27T13:36:03.079Z,8.85
2023-10-27T13:38:30.985Z,10.20
2023-10-27T13:40:59.346Z,10.40
2023-10-27T13:43:28.872Z,9.80
2023-10-27T13:46:01.643Z,8.82
2023-10-27T13:48:34.733Z,11.57
2023-10-27T13:51:10.581Z,9.53
2023-10-27T13:53:39.335Z,10.45
2023-10-27T13:56:13.891Z,9.20
2023-10-27T13:58:42.974Z,8.68
2023-10-27T14:01:11.731Z,42.03
2023-10-27T14:03:41.920Z,11.30
2023-10-27T14:06:13.420Z,8.52
2023-10-27T14:08:42.625Z,10.27
2023-10-27T14:11:11.405Z,8.65
2023-10-27T14:13:39.940Z,9.02
2023-10-27T14:16:12.129Z,8.67
2023-10-27T14:18:42.371Z,9.23
2023-10-27T14:21:11.099Z,10.05
2023-10-27T14:23:39.921Z,10.35
2023-10-27T14:26:12.694Z,8.77
2023-10-27T14:28:43.320Z,6.43
2023-10-27T14:31:12.373Z,7.53
2023-10-27T14:33:43.037Z,6.90
2023-10-27T14:36:14.354Z,6.97
2023-10-27T14:38:43.389Z,6.50
2023-10-27T14:41:12.315Z,7.13
2023-10-27T14:43:41.068Z,7.95
2023-10-27T14:46:12.702Z,7.22
2023-10-27T14:48:42.251Z,5.28
2023-10-27T14:51:11.345Z,6.47
2023-10-27T14:53:39.367Z,6.03
2023-10-27T14:56:09.887Z,6.68
2023-10-27T14:58:38.294Z,11.05
2023-10-27T15:01:07.850Z,9.27
2023-10-27T15:03:38.509Z,7.22
2023-10-27T15:06:10.526Z,7.07
2023-10-27T15:08:39.631Z,7.82
2023-10-27T15:11:08.926Z,6.63
2023-10-27T15:13:37.987Z,7.03
2023-10-27T15:16:09.111Z,6.43
2023-10-27T15:18:37.510Z,8.17
2023-10-27T15:21:07.476Z,8.38
2023-10-27T15:23:38.106Z,8.65
2023-10-27T15:26:07.998Z,14.23
2023-10-27T15:28:36.900Z,20.52
2023-10-27T15:31:07.441Z,8.83
2023-10-27T15:33:39.700Z,12.18
2023-10-27T15:36:10.500Z,8.95
2023-10-27T15:38:42.173Z,8.40
2023-10-27T15:41:25.672Z,7.30
2023-10-27T15:43:54.849Z,7.27
2023-10-27T15:46:23.490Z,6.68
2023-10-27T15:48:52.466Z,8.82
2023-10-27T15:51:22.037Z,6.57
2023-10-27T15:53:52.042Z,7.57
2023-10-27T15:56:25.484Z,15.93
2023-10-27T15:58:54.129Z,9.85
2023-10-27T16:01:22.433Z,9.32
2023-10-27T16:03:51.158Z,10.25
2023-10-27T16:06:20.056Z,8.57
2023-10-27T16:08:48.922Z,7.73
2023-10-27T16:11:18.612Z,9.68
2023-10-27T16:13:47.660Z,9.07
2023-10-27T16:16:19.033Z,7.88
2023-10-27T16:18:48.601Z,9.90
2023-10-27T16:21:17.270Z,7.87
2023-10-27T16:23:45.869Z,8.40
2023-10-27T16:26:15.307Z,7.82
2023-10-27T16:28:44.639Z,8.35
2023-10-27T16:31:12.875Z,7.70
2023-10-27T16:33:41.402Z,7.13
2023-10-27T16:36:13.082Z,7.70
2023-10-27T16:38:41.053Z,9.00
2023-10-27T16:41:09.654Z,7.88
2023-10-27T16:43:41.366Z,8.10
2023-10-27T16:46:11.244Z,9.27
2023-10-27T16:48:40.004Z,8.43
2023-10-27T16:51:10.847Z,9.02
2023-10-27T16:53:40.424Z,9.02
2023-10-27T16:56:10.294Z,9.20
2023-10-27T16:58:39.734Z,9.60
2023-10-27T17:01:08.604Z,10.07
2023-10-27T17:03:38.368Z,8.30
2023-10-27T17:06:08.249Z,9.32
2023-10-27T17:08:36.469Z,9.00
2023-10-27T17:11:07.028Z,10.53
2023-10-27T17:13:37.715Z,10.63
2023-10-27T17:16:09.967Z,10.48
2023-10-27T17:18:41.822Z,10.23
2023-10-27T17:21:14.284Z,11.27
2023-10-27T17:23:43.437Z,8.63
2023-10-27T17:26:12.267Z,11.68
2023-10-27T17:28:41.250Z,9.98
2023-10-27T17:31:11.062Z,12.38
2023-10-27T17:33:41.377Z,9.93
2023-10-27T17:36:11.676Z,12.30
2023-10-27T17:38:40.460Z,10.32
2023-10-27T17:41:10.081Z,10.50
2023-10-27T17:43:39.765Z,10.25
2023-10-27T17:46:09.074Z,8.82
2023-10-27T17:48:37.553Z,10.10
2023-10-27T17:51:09.307Z,9.63
2023-10-27T17:53:39.878Z,9.43
2023-10-27T17:56:09.629Z,8.80
2023-10-27T17:58:38.712Z,8.75
2023-10-27T18:01:08.941Z,9.50
2023-10-27T18:03:38.636Z,7.78
2023-10-27T18:06:13.403Z,8.25
2023-10-27T18:08:42.422Z,9.43
2023-10-27T18:11:11.200Z,8.43
2023-10-27T18:13:40.374Z,7.90
2023-10-27T18:16:09.497Z,8.70
2023-10-27T18:18:37.984Z,7.70
2023-10-27T18:21:11.991Z,8.32
2023-10-27T18:23:40.328Z,8.45
2023-10-27T18:26:15.443Z,8.73
2023-10-27T18:28:43.533Z,7.57
2023-10-27T18:31:11.650Z,8.23
2023-10-27T18:33:39.873Z,8.32
2023-10-27T18:36:14.792Z,9.02
2023-10-27T18:38:44.638Z,9.30
2023-10-27T18:41:12.933Z,9.02
2023-10-27T18:43:44.967Z,8.50
2023-10-27T18:46:15.166Z,8.63
2023-10-27T18:48:44.499Z,9.32
2023-10-27T18:51:14.925Z,8.73
2023-10-27T18:53:44.085Z,9.15
2023-10-27T18:56:15.078Z,9.48
2023-10-27T18:58:45.526Z,8.75
2023-10-27T19:01:15.566Z,9.98
2023-10-27T19:03:48.290Z,9.77
2023-10-27T19:06:21.787Z,8.75
2023-10-27T19:08:50.905Z,9.23
2023-10-27T19:11:21.779Z,10.38
2023-10-27T19:13:50.326Z,9.93
2023-10-27T19:16:19.169Z,9.77
2023-10-27T19:18:49.764Z,11.02
2023-10-27T19:21:20.126Z,10.18
2023-10-27T19:23:52.262Z,10.43
2023-10-27T19:26:22.666Z,9.75
2023-10-27T19:28:53.340Z,10.00
2023-10-27T19:31:23.580Z,9.18
2023-10-27T19:33:52.535Z,10.30
2023-10-27T19:36:24.611Z,9.77
2023-10-27T19:38:54.784Z,9.77
2023-10-27T19:41:26.819Z,10.87
2023-10-27T19:43:56.871Z,9.15
2023-10-27T19:46:27.472Z,10.05
2023-10-27T19:49:00.811Z,10.07
2023-10-27T19:51:32.243Z,9.80
2023-10-27T19:54:01.901Z,9.47
2023-10-27T19:56:31.202Z,9.07
2023-10-27T19:59:01.489Z,8.05
2023-10-27T20:01:32.006Z,9.55
2023-10-27T20:04:03.367Z,9.25
2023-10-27T20:06:34.672Z,8.20
2023-10-27T20:09:07.345Z,7.82
2023-10-27T20:11:38.292Z,7.05
2023-10-27T20:14:08.813Z,7.53
2023-10-27T20:16:40.974Z,8.50
2023-10-27T20:19:10.796Z,8.43
2023-10-27T20:21:44.122Z,7.28
2023-10-27T20:24:15.015Z,7.20
2023-10-27T20:26:45.147Z,7.82
2023-10-27T20:29:17.624Z,7.00
2023-10-27T20:31:48.236Z,7.53
2023-10-27T20:34:17.595Z,8.88
2023-10-27T20:36:47.568Z,7.25
2023-10-27T20:39:16.496Z,7.07
2023-10-27T20:41:45.467Z,8.32
2023-10-27T20:44:14.444Z,6.93
2023-10-27T20:46:43.377Z,7.50
2023-10-27T20:49:12.203Z,7.05
2023-10-27T20:51:41.084Z,7.88
2023-10-27T20:54:11.289Z,6.93
2023-10-27T20:56:40.920Z,6.87
2023-10-27T20:59:09.872Z,6.70
2023-10-27T21:01:38.753Z,7.07
2023-10-27T21:04:10.358Z,7.38
2023-10-27T21:06:40.358Z,6.78
2023-10-27T21:09:10.644Z,6.97
2023-10-27T21:11:39.651Z,6.70
2023-10-27T21:14:08.963Z,7.05
2023-10-27T21:16:37.751Z,7.50
2023-10-27T21:19:06.834Z,5.43
2023-10-27T21:21:35.748Z,7.13
2023-10-27T21:24:04.539Z,5.63
2023-10-27T21:26:34.605Z,5.00
2023-10-27T21:29:03.291Z,5.35
2023-10-27T21:31:32.084Z,4.85
2023-10-27T21:34:00.789Z,5.17
2023-10-27T21:36:30.054Z,4.80
2023-10-27T21:38:59.131Z,4.32
2023-10-27T21:41:28.260Z,4.88
2023-10-27T21:43:58.928Z,4.03
2023-10-27T21:46:28.188Z,4.80
2023-10-27T21:48:57.071Z,4.85
2023-10-27T21:51:25.740Z,4.60
2023-10-27T21:53:54.503Z,4.90
2023-10-27T21:56:23.223Z,4.70
2023-10-27T21:58:52.054Z,4.50
2023-10-27T22:01:24.333Z,4.68
2023-10-27T22:03:58.720Z,4.40
2023-10-27T22:06:27.424Z,3.75
2023-10-27T22:08:56.004Z,4.05
2023-10-27T22:11:24.122Z,3.73
2023-10-27T22:13:52.257Z,3.60
2023-10-27T22:16:22.352Z,3.85
2023-10-27T22:18:51.178Z,5.30
2023-10-27T22:21:19.871Z,4.32
2023-10-27T22:23:48.502Z,5.20
2023-10-27T22:26:18.170Z,4.97
2023-10-27T22:28:47.158Z,4.40
2023-10-27T22:31:15.781Z,4.40
2023-10-27T22:33:45.761Z,4.38
2023-10-27T22:36:15.049Z,4.73
2023-10-27T22:38:43.511Z,4.47
2023-10-27T22:41:12.923Z,5.30
2023-10-27T22:43:42.806Z,4.65
2023-10-27T22:46:11.093Z,5.30
2023-10-27T22:48:39.559Z,5.10
2023-10-27T22:51:11.015Z,4.80
2023-10-27T22:53:40.660Z,6.18
2023-10-27T22:56:10.184Z,6.22
2023-10-27T22:58:38.424Z,5.85
2023-10-27T23:01:11.202Z,6.33
2023-10-27T23:03:40.401Z,7.40
2023-10-27T23:06:12.560Z,10.52
2023-10-27T23:08:41.946Z,13.93
2023-10-27T23:11:11.044Z,10.95
2023-10-27T23:13:40.665Z,10.30
2023-10-27T23:16:10.770Z,10.00
2023-10-27T23:18:42.564Z,11.23
2023-10-27T23:21:14.299Z,11.30
2023-10-27T23:23:44.687Z,10.40
2023-10-27T23:26:13.695Z,11.30
2023-10-27T23:28:42.972Z,11.75
2023-10-27T23:31:13.526Z,14.85
2023-10-27T23:33:42.371Z,13.23
2023-10-27T23:36:17.860Z,11.95
2023-10-27T23:38:47.547Z,13.53
2023-10-27T23:41:16.233Z,11.13
2023-10-27T23:43:45.115Z,10.45
2023-10-27T23:46:15.507Z,11.48
2023-10-27T23:48:44.815Z,11.38
2023-10-27T23:51:14.878Z,8.93
2023-10-27T23:53:43.514Z,10.48
2023-10-27T23:56:12.943Z,10.43
2023-10-27T23:58:41.274Z,9.27
